sensor_id;sensor_type;location;lat;lon;timestamp;pressure;altitude;pressure_sealevel;temperature;humidity
42511;BME280;28141;51.120;17.114;2023-09-19T00:02:56;100878.30;;;30.38;44.86
42511;BME280;28141;51.120;17.114;2023-09-19T00:06:13;100890.18;;;30.08;44.64
42511;BME280;28141;51.120;17.114;2023-09-19T00:09:28;100896.30;;;30.00;45.30
42511;BME280;28141;51.120;17.114;2023-09-19T00:12:43;100899.58;;;30.49;44.52
42511;BME280;28141;51.120;17.114;2023-09-19T00:16:23;100903.88;;;29.63;45.42
42511;BME280;28141;51.120;17.114;2023-09-19T00:19:38;100874.94;;;30.36;44.85
42511;BME280;28141;51.120;17.114;2023-09-19T00:22:56;100892.35;;;29.96;45.83
42511;BME280;28141;51.120;17.114;2023-09-19T00:26:17;100896.62;;;29.67;45.13
42511;BME280;28141;51.120;17.114;2023-09-19T00:29:57;100898.10;;;29.37;46.21
42511;BME280;28141;51.120;17.114;2023-09-19T00:33:12;100895.89;;;29.39;46.53
42511;BME280;28141;51.120;17.114;2023-09-19T00:36:30;100895.05;;;29.39;46.97
42511;BME280;28141;51.120;17.114;2023-09-19T00:39:44;100903.48;;;29.17;47.08
42511;BME280;28141;51.120;17.114;2023-09-19T00:43:24;100900.38;;;29.14;47.67
42511;BME280;28141;51.120;17.114;2023-09-19T00:46:37;100889.41;;;29.76;47.50
42511;BME280;28141;51.120;17.114;2023-09-19T00:49:51;100888.34;;;30.34;45.36
42511;BME280;28141;51.120;17.114;2023-09-19T00:53:06;100886.77;;;30.64;44.84
42511;BME280;28141;51.120;17.114;2023-09-19T00:56:47;100884.46;;;30.45;44.90
42511;BME280;28141;51.120;17.114;2023-09-19T01:00:08;100888.47;;;30.75;44.16
42511;BME280;28141;51.120;17.114;2023-09-19T01:03:29;100886.54;;;30.80;44.41
42511;BME280;28141;51.120;17.114;2023-09-19T01:07:10;100885.13;;;30.83;43.88
42511;BME280;28141;51.120;17.114;2023-09-19T01:10:25;100887.88;;;30.63;44.18
42511;BME280;28141;51.120;17.114;2023-09-19T01:13:48;100871.97;;;30.68;44.01
42511;BME280;28141;51.120;17.114;2023-09-19T01:17:14;100866.91;;;30.55;44.56
42511;BME280;28141;51.120;17.114;2023-09-19T01:21:08;100875.88;;;30.67;44.22
42511;BME280;28141;51.120;17.114;2023-09-19T01:31:42;100894.57;;;29.94;45.92
42511;BME280;28141;51.120;17.114;2023-09-19T01:34:58;100872.07;;;30.16;45.36
42511;BME280;28141;51.120;17.114;2023-09-19T01:38:17;100868.74;;;30.29;45.17
42511;BME280;28141;51.120;17.114;2023-09-19T01:41:41;100879.18;;;29.92;45.58
42511;BME280;28141;51.120;17.114;2023-09-19T01:56:28;100881.04;;;30.23;46.05
42511;BME280;28141;51.120;17.114;2023-09-19T02:00:17;100876.05;;;30.40;45.71
42511;BME280;28141;51.120;17.114;2023-09-19T02:03:33;100871.57;;;30.34;45.24
42511;BME280;28141;51.120;17.114;2023-09-19T02:06:48;100868.00;;;30.49;45.79
42511;BME280;28141;51.120;17.114;2023-09-19T02:10:03;100861.23;;;30.40;46.21
42511;BME280;28141;51.120;17.114;2023-09-19T02:13:45;100874.09;;;30.41;45.44
42511;BME280;28141;51.120;17.114;2023-09-19T02:16:59;100877.13;;;30.24;45.59
42511;BME280;28141;51.120;17.114;2023-09-19T02:20:13;100877.66;;;30.21;45.09
42511;BME280;28141;51.120;17.114;2023-09-19T02:23:32;100877.32;;;30.07;45.83
42511;BME280;28141;51.120;17.114;2023-09-19T02:27:12;100880.42;;;30.06;46.21
42511;BME280;28141;51.120;17.114;2023-09-19T02:30:29;100874.30;;;30.19;45.74
42511;BME280;28141;51.120;17.114;2023-09-19T02:33:44;100882.72;;;30.24;45.84
42511;BME280;28141;51.120;17.114;2023-09-19T02:37:00;100893.12;;;30.39;45.63
42511;BME280;28141;51.120;17.114;2023-09-19T02:40:40;100892.63;;;30.57;45.22
42511;BME280;28141;51.120;17.114;2023-09-19T02:43:56;100876.43;;;30.64;44.69
42511;BME280;28141;51.120;17.114;2023-09-19T02:47:11;100881.80;;;30.91;44.11
42511;BME280;28141;51.120;17.114;2023-09-19T02:50:25;100849.06;;;31.02;43.64
42511;BME280;28141;51.120;17.114;2023-09-19T02:54:05;100857.77;;;31.10;43.44
42511;BME280;28141;51.120;17.114;2023-09-19T02:57:19;100853.85;;;31.11;43.74
42511;BME280;28141;51.120;17.114;2023-09-19T03:00:33;100849.38;;;31.10;43.25
42511;BME280;28141;51.120;17.114;2023-09-19T03:03:50;100841.27;;;31.14;43.05
42511;BME280;28141;51.120;17.114;2023-09-19T03:07:30;100847.40;;;31.21;43.17
42511;BME280;28141;51.120;17.114;2023-09-19T03:10:47;100842.94;;;31.25;43.20
42511;BME280;28141;51.120;17.114;2023-09-19T03:14:01;100849.91;;;31.28;42.78
42511;BME280;28141;51.120;17.114;2023-09-19T03:17:16;100850.19;;;31.31;42.98
42511;BME280;28141;51.120;17.114;2023-09-19T03:20:56;100848.25;;;31.22;43.15
42511;BME280;28141;51.120;17.114;2023-09-19T03:24:10;100846.27;;;31.17;43.39
42511;BME280;28141;51.120;17.114;2023-09-19T03:27:25;100844.32;;;31.17;43.43
42511;BME280;28141;51.120;17.114;2023-09-19T03:30:39;100847.70;;;31.14;43.39
42511;BME280;28141;51.120;17.114;2023-09-19T03:34:19;100863.37;;;31.10;43.45
42511;BME280;28141;51.120;17.114;2023-09-19T03:37:33;100858.29;;;31.07;43.68
42511;BME280;28141;51.120;17.114;2023-09-19T03:40:48;100857.77;;;31.10;43.79
42511;BME280;28141;51.120;17.114;2023-09-19T03:44:02;100868.96;;;31.10;43.72
42511;BME280;28141;51.120;17.114;2023-09-19T03:47:41;100870.08;;;31.09;43.60
42511;BME280;28141;51.120;17.114;2023-09-19T03:50:55;100863.32;;;31.05;43.88
42511;BME280;28141;51.120;17.114;2023-09-19T03:54:10;100865.02;;;31.01;43.61
42511;BME280;28141;51.120;17.114;2023-09-19T03:57:24;100861.65;;;30.99;44.02
42511;BME280;28141;51.120;17.114;2023-09-19T04:01:04;100859.41;;;30.96;44.06
42511;BME280;28141;51.120;17.114;2023-09-19T04:04:19;100859.41;;;31.01;43.82
42511;BME280;28141;51.120;17.114;2023-09-19T04:07:33;100865.59;;;31.03;44.16
42511;BME280;28141;51.120;17.114;2023-09-19T04:10:48;100861.64;;;31.04;43.89
42511;BME280;28141;51.120;17.114;2023-09-19T04:14:28;100864.44;;;31.04;44.11
42511;BME280;28141;51.120;17.114;2023-09-19T04:17:42;100865.02;;;31.01;43.97
42511;BME280;28141;51.120;17.114;2023-09-19T04:20:56;100857.20;;;31.03;44.09
42511;BME280;28141;51.120;17.114;2023-09-19T04:24:10;100857.73;;;31.00;44.52
42511;BME280;28141;51.120;17.114;2023-09-19T04:27:50;100858.02;;;31.04;44.28
42511;BME280;28141;51.120;17.114;2023-09-19T04:31:04;100858.84;;;31.04;44.81
42511;BME280;28141;51.120;17.114;2023-09-19T04:34:17;100855.51;;;31.02;44.51
42511;BME280;28141;51.120;17.114;2023-09-19T04:37:31;100861.11;;;31.02;44.16
42511;BME280;28141;51.120;17.114;2023-09-19T04:41:12;100866.13;;;31.00;44.41
42511;BME280;28141;51.120;17.114;2023-09-19T04:44:28;100873.41;;;31.01;44.41
42511;BME280;28141;51.120;17.114;2023-09-19T04:47:42;100878.44;;;30.99;44.45
42511;BME280;28141;51.120;17.114;2023-09-19T04:50:57;100866.11;;;30.95;44.52
42511;BME280;28141;51.120;17.114;2023-09-19T04:54:39;100885.16;;;30.93;44.65
42511;BME280;28141;51.120;17.114;2023-09-19T04:57:54;100882.06;;;30.95;44.65
42511;BME280;28141;51.120;17.114;2023-09-19T05:01:09;100883.48;;;30.92;44.42
42511;BME280;28141;51.120;17.114;2023-09-19T05:04:27;100881.23;;;30.89;44.84
42511;BME280;28141;51.120;17.114;2023-09-19T05:08:08;100880.38;;;30.83;44.88
42511;BME280;28141;51.120;17.114;2023-09-19T05:11:23;100892.13;;;30.80;45.09
42511;BME280;28141;51.120;17.114;2023-09-19T05:14:38;100893.82;;;30.81;45.43
42511;BME280;28141;51.120;17.114;2023-09-19T05:17:53;100889.61;;;30.79;45.24
42511;BME280;28141;51.120;17.114;2023-09-19T05:21:35;100890.72;;;30.83;45.44
42511;BME280;28141;51.120;17.114;2023-09-19T05:24:49;100887.09;;;30.88;45.04
42511;BME280;28141;51.120;17.114;2023-09-19T05:28:04;100898.01;;;30.94;45.51
42511;BME280;28141;51.120;17.114;2023-09-19T05:31:19;100900.52;;;30.96;45.51
42511;BME280;28141;51.120;17.114;2023-09-19T05:34:59;100900.27;;;30.92;45.19
42511;BME280;28141;51.120;17.114;2023-09-19T05:38:14;100911.17;;;30.99;45.58
42511;BME280;28141;51.120;17.114;2023-09-19T05:41:32;100910.87;;;30.95;45.21
42511;BME280;28141;51.120;17.114;2023-09-19T05:44:49;100923.77;;;31.01;45.13
42511;BME280;28141;51.120;17.114;2023-09-19T05:48:29;100925.43;;;30.97;45.01
42511;BME280;28141;51.120;17.114;2023-09-19T05:51:43;100927.38;;;30.97;44.51
42511;BME280;28141;51.120;17.114;2023-09-19T05:54:56;100932.41;;;30.95;44.70
42511;BME280;28141;51.120;17.114;2023-09-19T05:58:11;100939.69;;;30.96;44.87
42511;BME280;28141;51.120;17.114;2023-09-19T06:01:53;100945.02;;;30.97;44.93
42511;BME280;28141;51.120;17.114;2023-09-19T06:05:07;100948.35;;;30.94;44.76
42511;BME280;28141;51.120;17.114;2023-09-19T06:08:24;100946.16;;;31.01;44.85
42511;BME280;28141;51.120;17.114;2023-09-19T06:11:44;100949.78;;;30.92;45.22
42511;BME280;28141;51.120;17.114;2023-09-19T06:15:24;100944.46;;;31.00;45.57
42511;BME280;28141;51.120;17.114;2023-09-19T06:18:39;100940.27;;;31.08;45.82
42511;BME280;28141;51.120;17.114;2023-09-19T06:21:53;100948.45;;;31.14;45.96
42511;BME280;28141;51.120;17.114;2023-09-19T06:25:11;100961.59;;;31.19;45.64
42511;BME280;28141;51.120;17.114;2023-09-19T06:28:53;100959.92;;;31.23;45.89
42511;BME280;28141;51.120;17.114;2023-09-19T06:32:09;100947.87;;;31.17;45.83
42511;BME280;28141;51.120;17.114;2023-09-19T06:35:23;100957.69;;;31.15;46.25
42511;BME280;28141;51.120;17.114;2023-09-19T06:38:39;100970.27;;;31.12;46.03
42511;BME280;28141;51.120;17.114;2023-09-19T06:42:20;100976.63;;;30.98;45.72
42511;BME280;28141;51.120;17.114;2023-09-19T06:45:36;100974.38;;;30.95;45.56
42511;BME280;28141;51.120;17.114;2023-09-19T06:48:50;100977.25;;;30.42;45.55
42511;BME280;28141;51.120;17.114;2023-09-19T06:52:06;100984.67;;;30.69;45.78
42511;BME280;28141;51.120;17.114;2023-09-19T06:55:45;100993.06;;;30.74;45.41
42511;BME280;28141;51.120;17.114;2023-09-19T06:59:00;100993.63;;;30.71;45.71
42511;BME280;28141;51.120;17.114;2023-09-19T07:02:19;100998.08;;;30.67;45.09
42511;BME280;28141;51.120;17.114;2023-09-19T07:05:35;100997.27;;;30.71;45.23
42511;BME280;28141;51.120;17.114;2023-09-19T07:09:18;101022.94;;;30.58;45.10
42511;BME280;28141;51.120;17.114;2023-09-19T07:12:35;101020.41;;;30.57;45.07
42511;BME280;28141;51.120;17.114;2023-09-19T07:15:50;101023.20;;;30.57;44.98
42511;BME280;28141;51.120;17.114;2023-09-19T07:19:03;101035.88;;;30.27;45.47
42511;BME280;28141;51.120;17.114;2023-09-19T07:22:43;101036.86;;;30.06;45.66
42511;BME280;28141;51.120;17.114;2023-09-19T07:25:57;101026.03;;;29.83;46.20
42511;BME280;28141;51.120;17.114;2023-09-19T07:29:13;101039.47;;;30.23;45.72
42511;BME280;28141;51.120;17.114;2023-09-19T07:32:26;101037.28;;;29.93;45.40
42511;BME280;28141;51.120;17.114;2023-09-19T07:36:09;101039.98;;;30.15;45.14
42511;BME280;28141;51.120;17.114;2023-09-19T07:39:26;101043.63;;;29.51;45.48
42511;BME280;28141;51.120;17.114;2023-09-19T07:42:40;101046.90;;;30.07;45.85
42511;BME280;28141;51.120;17.114;2023-09-19T07:45:54;101050.00;;;29.47;45.59
42511;BME280;28141;51.120;17.114;2023-09-19T07:49:34;101061.77;;;29.54;45.83
42511;BME280;28141;51.120;17.114;2023-09-19T07:52:49;101061.90;;;29.37;46.01
42511;BME280;28141;51.120;17.114;2023-09-19T07:56:10;101057.52;;;28.54;47.19
42511;BME280;28141;51.120;17.114;2023-09-19T07:59:24;101057.23;;;29.21;47.44
42511;BME280;28141;51.120;17.114;2023-09-19T08:03:04;101068.77;;;29.83;45.95
42511;BME280;28141;51.120;17.114;2023-09-19T08:06:20;101081.56;;;29.79;44.75
42511;BME280;28141;51.120;17.114;2023-09-19T08:09:34;101078.19;;;30.04;44.00
42511;BME280;28141;51.120;17.114;2023-09-19T08:12:51;101082.92;;;30.03;45.02
42511;BME280;28141;51.120;17.114;2023-09-19T08:16:37;101086.71;;;30.24;44.32
42511;BME280;28141;51.120;17.114;2023-09-19T08:19:52;101084.05;;;30.07;45.64
42511;BME280;28141;51.120;17.114;2023-09-19T08:23:06;101092.68;;;30.38;43.94
42511;BME280;28141;51.120;17.114;2023-09-19T08:26:21;101094.25;;;30.24;44.23
42511;BME280;28141;51.120;17.114;2023-09-19T08:30:04;101110.11;;;29.11;45.70
42511;BME280;28141;51.120;17.114;2023-09-19T08:33:19;101111.34;;;28.76;45.97
42511;BME280;28141;51.120;17.114;2023-09-19T08:36:34;101100.46;;;29.18;46.48
42511;BME280;28141;51.120;17.114;2023-09-19T08:39:50;101116.58;;;28.73;47.02
42511;BME280;28141;51.120;17.114;2023-09-19T08:43:30;101113.31;;;29.19;46.78
42511;BME280;28141;51.120;17.114;2023-09-19T08:46:49;101117.71;;;29.15;46.38
42511;BME280;28141;51.120;17.114;2023-09-19T08:54:08;101095.69;;;28.03;46.84
42511;BME280;28141;51.120;17.114;2023-09-19T08:57:29;101128.80;;;29.10;46.63
42511;BME280;28141;51.120;17.114;2023-09-19T09:00:45;101116.37;;;28.96;46.19
42511;BME280;28141;51.120;17.114;2023-09-19T09:04:29;101125.16;;;29.10;46.56
42511;BME280;28141;51.120;17.114;2023-09-19T09:07:44;101127.52;;;29.66;46.29
42511;BME280;28141;51.120;17.114;2023-09-19T09:10:59;101135.99;;;29.76;45.67
42511;BME280;28141;51.120;17.114;2023-09-19T09:17:13;101150.47;;;29.25;44.84
42511;BME280;28141;51.120;17.114;2023-09-19T09:20:28;101150.73;;;29.01;46.25
42511;BME280;28141;51.120;17.114;2023-09-19T09:23:41;101155.02;;;28.87;46.36
42511;BME280;28141;51.120;17.114;2023-09-19T09:26:56;101160.92;;;29.13;46.45
42511;BME280;28141;51.120;17.114;2023-09-19T09:30:39;101159.68;;;29.25;46.23
42511;BME280;28141;51.120;17.114;2023-09-19T09:33:54;101162.59;;;28.92;46.48
42511;BME280;28141;51.120;17.114;2023-09-19T09:37:18;101169.30;;;28.74;46.97
42511;BME280;28141;51.120;17.114;2023-09-19T09:41:02;101169.05;;;29.85;45.34
42511;BME280;28141;51.120;17.114;2023-09-19T09:44:20;101155.45;;;30.57;43.82
42511;BME280;28141;51.120;17.114;2023-09-19T09:47:44;101176.48;;;29.74;44.32
42511;BME280;28141;51.120;17.114;2023-09-19T09:51:36;101170.95;;;30.38;44.30
42511;BME280;28141;51.120;17.114;2023-09-19T09:54:59;101170.16;;;29.84;43.66
42511;BME280;28141;51.120;17.114;2023-09-19T09:58:18;101168.98;;;29.31;44.30
42511;BME280;28141;51.120;17.114;2023-09-19T10:02:03;101189.01;;;29.71;44.40
42511;BME280;28141;51.120;17.114;2023-09-19T10:05:18;101175.21;;;30.50;44.04
42511;BME280;28141;51.120;17.114;2023-09-19T10:12:10;101182.30;;;30.26;43.63
42511;BME280;28141;51.120;17.114;2023-09-19T10:15:53;101191.21;;;30.23;43.62
42511;BME280;28141;51.120;17.114;2023-09-19T10:19:10;101199.75;;;30.75;42.72
42511;BME280;28141;51.120;17.114;2023-09-19T10:22:29;101205.26;;;30.60;42.83
42511;BME280;28141;51.120;17.114;2023-09-19T10:25:46;101200.52;;;30.61;43.41
42511;BME280;28141;51.120;17.114;2023-09-19T10:29:29;101192.72;;;30.68;42.54
42511;BME280;28141;51.120;17.114;2023-09-19T10:32:57;101205.52;;;31.06;41.74
42511;BME280;28141;51.120;17.114;2023-09-19T10:36:13;101207.30;;;30.11;41.48
42511;BME280;28141;51.120;17.114;2023-09-19T10:39:56;101224.83;;;29.14;40.60
42511;BME280;28141;51.120;17.114;2023-09-19T10:43:16;101228.45;;;28.43;40.12
42511;BME280;28141;51.120;17.114;2023-09-19T10:46:34;101238.55;;;27.87;39.48
42511;BME280;28141;51.120;17.114;2023-09-19T10:50:21;101235.41;;;27.83;39.45
42511;BME280;28141;51.120;17.114;2023-09-19T10:57:04;101219.55;;;27.55;43.95
42511;BME280;28141;51.120;17.114;2023-09-19T11:00:55;101216.54;;;28.02;46.70
42511;BME280;28141;51.120;17.114;2023-09-19T11:11:40;101232.98;;;27.87;45.58
42511;BME280;28141;51.120;17.114;2023-09-19T11:14:56;101246.50;;;27.67;44.09
42511;BME280;28141;51.120;17.114;2023-09-19T11:22:02;101232.21;;;27.91;46.44
42511;BME280;28141;51.120;17.114;2023-09-19T11:29:17;101227.94;;;28.29;47.45
42511;BME280;28141;51.120;17.114;2023-09-19T11:36:17;101227.75;;;27.50;44.00
42511;BME280;28141;51.120;17.114;2023-09-19T11:40:08;101225.57;;;27.64;44.30
42511;BME280;28141;51.120;17.114;2023-09-19T11:43:31;101220.09;;;27.97;45.93
42511;BME280;28141;51.120;17.114;2023-09-19T11:46:55;101213.82;;;28.36;46.71
42511;BME280;28141;51.120;17.114;2023-09-19T11:50:39;101218.32;;;28.53;46.58
42511;BME280;28141;51.120;17.114;2023-09-19T11:53:58;101228.14;;;28.11;44.76
42511;BME280;28141;51.120;17.114;2023-09-19T11:57:20;101205.39;;;27.57;42.69
42511;BME280;28141;51.120;17.114;2023-09-19T12:01:05;101245.69;;;27.43;43.04
42511;BME280;28141;51.120;17.114;2023-09-19T12:04:34;101229.84;;;27.83;45.43
42511;BME280;28141;51.120;17.114;2023-09-19T12:07:54;101222.64;;;28.16;47.07
42511;BME280;28141;51.120;17.114;2023-09-19T12:11:41;101224.88;;;28.47;46.83
42511;BME280;28141;51.120;17.114;2023-09-19T12:14:57;101230.79;;;28.17;45.17
42511;BME280;28141;51.120;17.114;2023-09-19T12:22:04;101248.44;;;27.54;41.65
42511;BME280;28141;51.120;17.114;2023-09-19T12:25:19;101232.38;;;27.85;43.32
42511;BME280;28141;51.120;17.114;2023-09-19T12:28:41;101237.23;;;28.06;45.26
42511;BME280;28141;51.120;17.114;2023-09-19T12:31:58;101228.77;;;28.29;45.23
42511;BME280;28141;51.120;17.114;2023-09-19T12:35:43;101226.66;;;28.70;44.60
42511;BME280;28141;51.120;17.114;2023-09-19T12:38:58;101230.88;;;28.39;42.68
42511;BME280;28141;51.120;17.114;2023-09-19T12:42:13;101230.41;;;28.14;41.20
42511;BME280;28141;51.120;17.114;2023-09-19T12:45:28;101241.53;;;27.97;40.48
42511;BME280;28141;51.120;17.114;2023-09-19T12:49:18;101222.19;;;28.36;41.92
42511;BME280;28141;51.120;17.114;2023-09-19T12:52:39;101219.98;;;28.71;43.41
42511;BME280;28141;51.120;17.114;2023-09-19T12:56:00;101225.20;;;29.01;43.33
42511;BME280;28141;51.120;17.114;2023-09-19T12:59:40;101231.02;;;28.99;41.52
42511;BME280;28141;51.120;17.114;2023-09-19T13:10:12;101209.17;;;29.52;38.99
42511;BME280;28141;51.120;17.114;2023-09-19T13:13:29;101205.98;;;29.92;39.93
42511;BME280;28141;51.120;17.114;2023-09-19T13:16:54;101201.63;;;30.33;38.96
42511;BME280;28141;51.120;17.114;2023-09-19T13:27:32;101207.15;;;31.44;35.57
42511;BME280;28141;51.120;17.114;2023-09-19T13:30:45;101197.30;;;32.29;34.65
42511;BME280;28141;51.120;17.114;2023-09-19T13:34:30;101197.28;;;32.34;33.42
42511;BME280;28141;51.120;17.114;2023-09-19T13:37:48;101194.88;;;33.32;33.36
42511;BME280;28141;51.120;17.114;2023-09-19T13:41:05;101195.80;;;33.08;32.39
42511;BME280;28141;51.120;17.114;2023-09-19T13:44:20;101191.51;;;33.35;32.46
42511;BME280;28141;51.120;17.114;2023-09-19T13:48:03;101195.44;;;33.34;31.98
42511;BME280;28141;51.120;17.114;2023-09-19T13:51:17;101188.36;;;33.96;31.58
42511;BME280;28141;51.120;17.114;2023-09-19T13:54:34;101200.12;;;33.54;31.57
42511;BME280;28141;51.120;17.114;2023-09-19T13:57:48;101183.21;;;34.08;31.71
42511;BME280;28141;51.120;17.114;2023-09-19T14:01:34;101186.76;;;34.58;31.44
42511;BME280;28141;51.120;17.114;2023-09-19T14:04:49;101197.63;;;33.97;31.21
42511;BME280;28141;51.120;17.114;2023-09-19T14:08:03;101183.53;;;34.41;30.96
42511;BME280;28141;51.120;17.114;2023-09-19T14:11:17;101184.50;;;34.60;31.13
42511;BME280;28141;51.120;17.114;2023-09-19T14:14:56;101181.94;;;34.93;30.88
42511;BME280;28141;51.120;17.114;2023-09-19T14:18:10;101181.02;;;34.97;30.57
42511;BME280;28141;51.120;17.114;2023-09-19T14:21:24;101181.82;;;35.03;30.68
42511;BME280;28141;51.120;17.114;2023-09-19T14:24:37;101179.93;;;35.17;30.49
42511;BME280;28141;51.120;17.114;2023-09-19T14:28:16;101161.14;;;34.89;30.40
42511;BME280;28141;51.120;17.114;2023-09-19T14:31:30;101190.13;;;34.60;30.48
42511;BME280;28141;51.120;17.114;2023-09-19T14:34:44;101197.28;;;34.48;30.68
42511;BME280;28141;51.120;17.114;2023-09-19T14:37:59;101191.94;;;34.46;30.55
42511;BME280;28141;51.120;17.114;2023-09-19T14:41:13;101194.38;;;34.19;31.42
42511;BME280;28141;51.120;17.114;2023-09-19T14:44:53;101193.23;;;34.25;30.94
42511;BME280;28141;51.120;17.114;2023-09-19T14:48:07;101199.89;;;34.39;31.20
42511;BME280;28141;51.120;17.114;2023-09-19T14:51:21;101201.64;;;33.86;31.07
42511;BME280;28141;51.120;17.114;2023-09-19T14:54:36;101197.89;;;34.00;31.74
42511;BME280;28141;51.120;17.114;2023-09-19T14:58:20;101194.44;;;34.14;31.43
42511;BME280;28141;51.120;17.114;2023-09-19T15:01:35;101192.62;;;33.40;31.32
42511;BME280;28141;51.120;17.114;2023-09-19T15:04:48;101207.35;;;33.65;32.08
42511;BME280;28141;51.120;17.114;2023-09-19T15:08:05;101211.16;;;33.41;31.66
42511;BME280;28141;51.120;17.114;2023-09-19T15:11:43;101200.21;;;33.34;32.02
42511;BME280;28141;51.120;17.114;2023-09-19T15:14:57;101199.41;;;33.23;32.32
42511;BME280;28141;51.120;17.114;2023-09-19T15:18:11;101195.99;;;33.42;32.11
42511;BME280;28141;51.120;17.114;2023-09-19T15:21:25;101202.91;;;32.39;32.65
42511;BME280;28141;51.120;17.114;2023-09-19T15:25:04;101206.83;;;32.23;33.15
42511;BME280;28141;51.120;17.114;2023-09-19T15:28:19;101204.03;;;32.43;33.26
42511;BME280;28141;51.120;17.114;2023-09-19T15:31:36;101203.93;;;31.77;33.69
42511;BME280;28141;51.120;17.114;2023-09-19T15:34:51;101209.30;;;32.14;34.19
42511;BME280;28141;51.120;17.114;2023-09-19T15:42:00;101206.20;;;33.07;32.60
42511;BME280;28141;51.120;17.114;2023-09-19T15:45:14;101197.70;;;33.22;33.00
42511;BME280;28141;51.120;17.114;2023-09-19T15:49:00;101204.00;;;32.58;32.68
42511;BME280;28141;51.120;17.114;2023-09-19T15:52:17;101210.17;;;32.60;32.57
42511;BME280;28141;51.120;17.114;2023-09-19T15:55:31;101205.41;;;32.61;32.50
42511;BME280;28141;51.120;17.114;2023-09-19T15:58:53;101214.68;;;32.72;33.01
42511;BME280;28141;51.120;17.114;2023-09-19T16:02:35;101214.82;;;33.36;32.94
42511;BME280;28141;51.120;17.114;2023-09-19T16:05:49;101216.40;;;33.57;32.03
42511;BME280;28141;51.120;17.114;2023-09-19T16:09:03;101216.26;;;33.23;32.19
42511;BME280;28141;51.120;17.114;2023-09-19T16:12:19;101216.67;;;33.61;32.15
42511;BME280;28141;51.120;17.114;2023-09-19T16:15:57;101231.23;;;33.68;32.37
42511;BME280;28141;51.120;17.114;2023-09-19T16:19:11;101228.20;;;33.54;31.96
42511;BME280;28141;51.120;17.114;2023-09-19T16:22:25;101228.57;;;33.38;32.41
42511;BME280;28141;51.120;17.114;2023-09-19T16:25:39;101213.30;;;33.59;32.58
42511;BME280;28141;51.120;17.114;2023-09-19T16:29:18;101227.06;;;33.60;32.52
42511;BME280;28141;51.120;17.114;2023-09-19T16:32:37;101229.59;;;33.62;32.82
42511;BME280;28141;51.120;17.114;2023-09-19T16:35:51;101228.48;;;33.58;32.46
42511;BME280;28141;51.120;17.114;2023-09-19T16:39:06;101227.36;;;33.54;32.50
42511;BME280;28141;51.120;17.114;2023-09-19T16:42:47;101236.06;;;33.57;32.70
42511;BME280;28141;51.120;17.114;2023-09-19T16:46:06;101235.55;;;33.50;32.85
42511;BME280;28141;51.120;17.114;2023-09-19T16:49:24;101242.57;;;33.43;33.08
42511;BME280;28141;51.120;17.114;2023-09-19T16:52:38;101248.52;;;33.41;32.83
42511;BME280;28141;51.120;17.114;2023-09-19T16:56:17;101246.87;;;33.25;32.74
42511;BME280;28141;51.120;17.114;2023-09-19T16:59:32;101254.19;;;33.06;32.69
42511;BME280;28141;51.120;17.114;2023-09-19T17:02:46;101243.84;;;32.96;33.21
42511;BME280;28141;51.120;17.114;2023-09-19T17:06:01;101255.62;;;32.83;33.10
42511;BME280;28141;51.120;17.114;2023-09-19T17:09:46;101260.69;;;32.71;33.31
42511;BME280;28141;51.120;17.114;2023-09-19T17:13:01;101269.08;;;32.60;33.56
42511;BME280;28141;51.120;17.114;2023-09-19T17:16:20;101270.22;;;32.44;33.41
42511;BME280;28141;51.120;17.114;2023-09-19T17:19:35;101262.91;;;32.33;34.35
42511;BME280;28141;51.120;17.114;2023-09-19T17:23:18;101273.49;;;32.16;34.05
42511;BME280;28141;51.120;17.114;2023-09-19T17:26:32;101271.81;;;32.10;33.56
42511;BME280;28141;51.120;17.114;2023-09-19T17:29:47;101273.72;;;31.89;34.25
42511;BME280;28141;51.120;17.114;2023-09-19T17:33:01;101274.20;;;31.71;34.40
42511;BME280;28141;51.120;17.114;2023-09-19T17:36:43;101288.98;;;31.61;34.91
42511;BME280;28141;51.120;17.114;2023-09-19T17:39:59;101283.91;;;31.53;35.44
42511;BME280;28141;51.120;17.114;2023-09-19T17:43:17;101286.40;;;31.44;35.18
42511;BME280;28141;51.120;17.114;2023-09-19T17:46:32;101293.41;;;31.47;35.51
42511;BME280;28141;51.120;17.114;2023-09-19T17:50:15;101299.86;;;31.52;35.58
42511;BME280;28141;51.120;17.114;2023-09-19T17:53:30;101299.81;;;31.42;35.44
42511;BME280;28141;51.120;17.114;2023-09-19T17:56:44;101316.08;;;31.45;35.87
42511;BME280;28141;51.120;17.114;2023-09-19T17:59:58;101310.75;;;31.44;35.92
42511;BME280;28141;51.120;17.114;2023-09-19T18:03:39;101305.63;;;31.31;35.91
42511;BME280;28141;51.120;17.114;2023-09-19T18:06:57;101311.41;;;31.14;36.16
42511;BME280;28141;51.120;17.114;2023-09-19T18:10:11;101309.64;;;31.08;35.79
42511;BME280;28141;51.120;17.114;2023-09-19T18:13:28;101310.46;;;31.03;36.86
42511;BME280;28141;51.120;17.114;2023-09-19T18:17:08;101321.20;;;31.16;36.46
42511;BME280;28141;51.120;17.114;2023-09-19T18:20:23;101321.20;;;31.16;36.30
42511;BME280;28141;51.120;17.114;2023-09-19T18:23:37;101324.51;;;31.08;36.28
42511;BME280;28141;51.120;17.114;2023-09-19T18:26:50;101323.63;;;31.08;36.48
42511;BME280;28141;51.120;17.114;2023-09-19T18:30:31;101325.59;;;31.07;36.75
42511;BME280;28141;51.120;17.114;2023-09-19T18:33:45;101322.62;;;31.14;36.84
42511;BME280;28141;51.120;17.114;2023-09-19T18:37:05;101323.98;;;31.11;36.65
42511;BME280;28141;51.120;17.114;2023-09-19T18:40:18;101325.11;;;31.15;36.64